La Palma Islan, Spain
Current Conditions -  °F | °C
As of 10:00 PM on Friday 21 Nov 2014 (Local Time) from GCLA Reporting Station
Few Clouds Few Clouds  
Wind Chill: 64°   Ceiling: Unl
Heat Index: 64°   Visibility: 6mi
Dew Point: 54°   Wind: 5mph
Humidity: 68%   Direction: 270°W
Pressure: 29.8"   Gusts: 16mph
Location:  28.62°N, 17.75°W
Report Text: GCLA 212200Z 27004G14KT 210V290 9999 FEW045 18/12 Q1009
Loading
Personal Weather Stations






























Interactive Weather Map New forecast layout! Learn more

10-Day Weather Forecast

Advertisements
Track Severe Weather on mobile